sensor_id;sensor_type;location;lat;lon;timestamp;pressure;altitude;pressure_sealevel;temperature;humidity
10145;BME280;5113;41.822;23.564;2024-03-23T00:52:41;-11229.37;;;10.67;44.85
10145;BME280;5113;41.822;23.564;2024-03-23T00:55:47;-11217.00;;;10.22;45.79
10145;BME280;5113;41.822;23.564;2024-03-23T00:58:51;-11213.22;;;10.08;45.87
10145;BME280;5113;41.822;23.564;2024-03-23T01:01:56;-11207.72;;;9.88;46.53
10145;BME280;5113;41.822;23.564;2024-03-23T01:05:01;-11210.25;;;9.98;45.70
10145;BME280;5113;41.822;23.564;2024-03-23T01:08:09;-11225.72;;;10.53;45.31
10145;BME280;5113;41.822;23.564;2024-03-23T01:11:13;-11208.28;;;9.90;45.86
10145;BME280;5113;41.822;23.564;2024-03-23T01:14:19;-11206.19;;;9.83;46.31
10145;BME280;5113;41.822;23.564;2024-03-23T01:17:23;-11202.66;;;9.70;46.62
10145;BME280;5113;41.822;23.564;2024-03-23T01:20:29;-11207.72;;;9.88;46.19
10145;BME280;5113;41.822;23.564;2024-03-23T01:23:34;-11219.25;;;10.30;46.09
10145;BME280;5113;41.822;23.564;2024-03-23T01:26:40;-11168.37;;;8.46;47.44
10145;BME280;5113;41.822;23.564;2024-03-23T01:29:44;-11153.19;;;7.91;49.17
10145;BME280;5113;41.822;23.564;2024-03-23T01:32:50;-11134.50;;;7.24;49.89
10145;BME280;5113;41.822;23.564;2024-03-23T01:35:54;-11176.38;;;8.75;47.28
10145;BME280;5113;41.822;23.564;2024-03-23T01:39:01;-11156.56;;;8.04;48.22
10145;BME280;5113;41.822;23.564;2024-03-23T01:42:05;-11124.09;;;6.86;51.36
10145;BME280;5113;41.822;23.564;2024-03-23T01:45:11;-11129.59;;;7.06;51.08
10145;BME280;5113;41.822;23.564;2024-03-23T01:48:16;-11151.50;;;7.85;49.83
10145;BME280;5113;41.822;23.564;2024-03-23T01:51:21;-11180.72;;;8.91;47.25
10145;BME280;5113;41.822;23.564;2024-03-23T01:54:27;-11156.13;;;8.02;48.26
10145;BME280;5113;41.822;23.564;2024-03-23T01:57:34;-11144.19;;;7.59;49.87
10145;BME280;5113;41.822;23.564;2024-03-23T02:00:39;-11184.53;;;9.05;46.87
10145;BME280;5113;41.822;23.564;2024-03-23T02:03:44;-11197.59;;;9.52;45.58
10145;BME280;5113;41.822;23.564;2024-03-23T02:06:49;-11194.66;;;9.41;45.94
10145;BME280;5113;41.822;23.564;2024-03-23T02:09:56;-11215.03;;;10.15;44.10
10145;BME280;5113;41.822;23.564;2024-03-23T02:13:00;-11209.56;;;9.95;44.66
10145;BME280;5113;41.822;23.564;2024-03-23T02:16:06;-11164.84;;;8.34;47.45
10145;BME280;5113;41.822;23.564;2024-03-23T02:19:11;-11182.13;;;8.96;46.13
10145;BME280;5113;41.822;23.564;2024-03-23T02:22:16;-11182.13;;;8.96;45.97
10145;BME280;5113;41.822;23.564;2024-03-23T02:25:22;-11191.41;;;9.30;46.03
10145;BME280;5113;41.822;23.564;2024-03-23T02:28:27;-11169.22;;;8.49;46.85
10145;BME280;5113;41.822;23.564;2024-03-23T02:31:32;-11171.47;;;8.57;47.38
10145;BME280;5113;41.822;23.564;2024-03-23T02:34:37;-11170.06;;;8.52;46.60
10145;BME280;5113;41.822;23.564;2024-03-23T02:37:41;-11164.84;;;8.34;47.04
10145;BME280;5113;41.822;23.564;2024-03-23T02:40:48;-11191.84;;;9.31;45.84
10145;BME280;5113;41.822;23.564;2024-03-23T02:43:53;-11183.97;;;9.03;46.19
10145;BME280;5113;41.822;23.564;2024-03-23T02:46:58;-11150.66;;;7.82;48.58
10145;BME280;5113;41.822;23.564;2024-03-23T02:50:04;-11183.53;;;9.01;46.40
10145;BME280;5113;41.822;23.564;2024-03-23T02:53:09;-11182.84;;;8.99;46.06
10145;BME280;5113;41.822;23.564;2024-03-23T02:56:16;-11179.03;;;8.85;46.40
10145;BME280;5113;41.822;23.564;2024-03-23T02:59:21;-11183.81;;;9.02;46.34
10145;BME280;5113;41.822;23.564;2024-03-23T03:02:27;-11180.72;;;8.91;46.50
10145;BME280;5113;41.822;23.564;2024-03-23T03:05:33;-11176.66;;;8.76;46.82
10145;BME280;5113;41.822;23.564;2024-03-23T03:08:38;-11184.66;;;9.05;46.12
10145;BME280;5113;41.822;23.564;2024-03-23T03:11:44;-11191.13;;;9.28;45.77
10145;BME280;5113;41.822;23.564;2024-03-23T03:14:50;-11180.16;;;8.89;46.02
10145;BME280;5113;41.822;23.564;2024-03-23T03:17:54;-11108.94;;;6.32;50.49
10145;BME280;5113;41.822;23.564;2024-03-23T03:21:00;-11122.56;;;6.81;50.41
10145;BME280;5113;41.822;23.564;2024-03-23T03:24:06;-11145.03;;;7.62;49.29
10145;BME280;5113;41.822;23.564;2024-03-23T03:27:13;-11164.16;;;8.31;46.84
10145;BME280;5113;41.822;23.564;2024-03-23T03:30:18;-11123.13;;;6.83;49.63
10145;BME280;5113;41.822;23.564;2024-03-23T03:33:24;-11176.22;;;8.75;46.41
10145;BME280;5113;41.822;23.564;2024-03-23T03:36:28;-11184.09;;;9.03;45.74
10145;BME280;5113;41.822;23.564;2024-03-23T03:39:34;-11192.25;;;9.33;45.28
10145;BME280;5113;41.822;23.564;2024-03-23T03:42:40;-11186.91;;;9.13;44.91
10145;BME280;5113;41.822;23.564;2024-03-23T03:45:51;-11199.84;;;9.60;43.86
10145;BME280;5113;41.822;23.564;2024-03-23T03:48:56;-11195.06;;;9.43;43.85
10145;BME280;5113;41.822;23.564;2024-03-23T03:52:01;-11147.84;;;7.72;46.05
10145;BME280;5113;41.822;23.564;2024-03-23T03:55:12;-11119.47;;;6.70;48.97
10145;BME280;5113;41.822;23.564;2024-03-23T03:58:19;-11109.06;;;6.32;49.84
10145;BME280;5113;41.822;23.564;2024-03-23T04:01:23;-11130.97;;;7.11;47.49
10145;BME280;5113;41.822;23.564;2024-03-23T04:04:29;-11151.06;;;7.84;46.90
10145;BME280;5113;41.822;23.564;2024-03-23T04:07:33;-11118.63;;;6.67;49.21
10145;BME280;5113;41.822;23.564;2024-03-23T04:10:39;-11136.03;;;7.29;47.37
10145;BME280;5113;41.822;23.564;2024-03-23T04:13:44;-11150.38;;;7.81;47.37
10145;BME280;5113;41.822;23.564;2024-03-23T04:16:49;-11133.09;;;7.19;48.06
10145;BME280;5113;41.822;23.564;2024-03-23T04:19:53;-11143.34;;;7.56;47.14
10145;BME280;5113;41.822;23.564;2024-03-23T04:23:01;-11170.75;;;8.55;45.48
10145;BME280;5113;41.822;23.564;2024-03-23T04:26:05;-11165.56;;;8.36;45.77
10145;BME280;5113;41.822;23.564;2024-03-23T04:29:12;-11165.84;;;8.37;45.84
10145;BME280;5113;41.822;23.564;2024-03-23T04:32:18;-11152.06;;;7.87;45.88
10145;BME280;5113;41.822;23.564;2024-03-23T04:35:22;-11131.13;;;7.12;47.34
10145;BME280;5113;41.822;23.564;2024-03-23T04:38:29;-11142.22;;;7.52;46.73
10145;BME280;5113;41.822;23.564;2024-03-23T04:41:34;-11149.66;;;7.79;46.52
10145;BME280;5113;41.822;23.564;2024-03-23T04:44:41;-11140.81;;;7.47;47.64
10145;BME280;5113;41.822;23.564;2024-03-23T04:47:46;-11113.56;;;6.48;49.67
10145;BME280;5113;41.822;23.564;2024-03-23T04:50:55;-11159.66;;;8.15;46.73
10145;BME280;5113;41.822;23.564;2024-03-23T04:54:01;-11138.56;;;7.39;47.62
10145;BME280;5113;41.822;23.564;2024-03-23T04:57:06;-11131.81;;;7.14;48.21
10145;BME280;5113;41.822;23.564;2024-03-23T05:00:14;-11171.47;;;8.57;45.76
10145;BME280;5113;41.822;23.564;2024-03-23T05:03:22;-11174.69;;;8.69;45.97
10145;BME280;5113;41.822;23.564;2024-03-23T05:06:28;-11197.59;;;9.52;43.88
10145;BME280;5113;41.822;23.564;2024-03-23T05:09:32;-11184.66;;;9.05;45.17
10145;BME280;5113;41.822;23.564;2024-03-23T05:12:38;-11205.75;;;9.81;44.10
10145;BME280;5113;41.822;23.564;2024-03-23T05:15:51;-11204.22;;;9.76;43.63
10145;BME280;5113;41.822;23.564;2024-03-23T05:18:57;-11199.16;;;9.57;43.96
10145;BME280;5113;41.822;23.564;2024-03-23T05:22:03;-11186.22;;;9.11;45.54
10145;BME280;5113;41.822;23.564;2024-03-23T05:25:08;-11217.84;;;10.25;43.60
10145;BME280;5113;41.822;23.564;2024-03-23T05:28:13;-11202.38;;;9.69;44.85
10145;BME280;5113;41.822;23.564;2024-03-23T05:31:24;-11217.84;;;10.25;43.96
10145;BME280;5113;41.822;23.564;2024-03-23T05:34:30;-11235.88;;;10.90;43.04
10145;BME280;5113;41.822;23.564;2024-03-23T05:37:34;-11232.75;;;10.79;42.91
10145;BME280;5113;41.822;23.564;2024-03-23T05:40:41;-11211.53;;;10.02;44.42
10145;BME280;5113;41.822;23.564;2024-03-23T05:43:45;-11211.09;;;10.01;45.57
10145;BME280;5113;41.822;23.564;2024-03-23T05:46:52;-11232.06;;;10.76;44.84
10145;BME280;5113;41.822;23.564;2024-03-23T05:49:57;-11255.28;;;11.60;42.73
10145;BME280;5113;41.822;23.564;2024-03-23T05:53:02;-11242.03;;;11.12;43.49
10145;BME280;5113;41.822;23.564;2024-03-23T05:56:08;-11201.69;;;9.67;46.50
10145;BME280;5113;41.822;23.564;2024-03-23T05:59:13;-11241.47;;;11.10;43.72
10145;BME280;5113;41.822;23.564;2024-03-23T06:02:19;-11253.72;;;11.54;43.42
10145;BME280;5113;41.822;23.564;2024-03-23T06:05:25;-11237.97;;;10.98;44.88
10145;BME280;5113;41.822;23.564;2024-03-23T06:08:29;-11266.13;;;11.99;43.31
10145;BME280;5113;41.822;23.564;2024-03-23T06:11:35;-11269.22;;;12.10;42.62
10145;BME280;5113;41.822;23.564;2024-03-23T06:14:40;-11233.59;;;10.82;44.76
10145;BME280;5113;41.822;23.564;2024-03-23T06:17:46;-11284.69;;;12.66;42.15
10145;BME280;5113;41.822;23.564;2024-03-23T06:20:51;-11251.19;;;11.45;43.71
10145;BME280;5113;41.822;23.564;2024-03-23T06:23:56;-11286.78;;;12.74;41.75
10145;BME280;5113;41.822;23.564;2024-03-23T06:27:02;-11288.78;;;12.81;41.47
10145;BME280;5113;41.822;23.564;2024-03-23T06:30:09;-11299.75;;;13.20;41.22
10145;BME280;5113;41.822;23.564;2024-03-23T06:33:16;-11316.22;;;13.80;40.46
10145;BME280;5113;41.822;23.564;2024-03-23T06:36:20;-11275.81;;;12.34;42.04
10145;BME280;5113;41.822;23.564;2024-03-23T06:39:26;-11302.72;;;13.31;41.01
10145;BME280;5113;41.822;23.564;2024-03-23T06:42:31;-11302.84;;;13.32;41.19
10145;BME280;5113;41.822;23.564;2024-03-23T06:45:35;-11304.97;;;13.39;40.84
10145;BME280;5113;41.822;23.564;2024-03-23T06:48:44;-11342.00;;;14.73;39.29
10145;BME280;5113;41.822;23.564;2024-03-23T06:51:49;-11315.09;;;13.76;41.14
10145;BME280;5113;41.822;23.564;2024-03-23T06:54:55;-11304.69;;;13.38;41.15
10145;BME280;5113;41.822;23.564;2024-03-23T06:57:59;-11304.69;;;13.38;41.48
10145;BME280;5113;41.822;23.564;2024-03-23T07:01:05;-11285.25;;;12.68;43.03
10145;BME280;5113;41.822;23.564;2024-03-23T07:04:10;-11369.88;;;15.73;38.68
10145;BME280;5113;41.822;23.564;2024-03-23T07:07:16;-11353.25;;;15.13;39.78
10145;BME280;5113;41.822;23.564;2024-03-23T07:10:22;-11316.94;;;13.82;40.91
10145;BME280;5113;41.822;23.564;2024-03-23T07:13:27;-11351.28;;;15.06;39.73
10145;BME280;5113;41.822;23.564;2024-03-23T07:16:32;-11320.31;;;13.95;41.24
10145;BME280;5113;41.822;23.564;2024-03-23T07:19:38;-11378.91;;;16.06;39.00
10145;BME280;5113;41.822;23.564;2024-03-23T07:22:45;-11372.28;;;15.82;38.88
10145;BME280;5113;41.822;23.564;2024-03-23T07:25:57;-11390.75;;;16.48;38.25
10145;BME280;5113;41.822;23.564;2024-03-23T07:29:02;-11357.63;;;15.29;39.25
10145;BME280;5113;41.822;23.564;2024-03-23T07:32:07;-11401.44;;;16.87;37.50
10145;BME280;5113;41.822;23.564;2024-03-23T07:35:14;-11381.16;;;16.14;39.15
10145;BME280;5113;41.822;23.564;2024-03-23T07:38:18;-11399.19;;;16.79;38.05
10145;BME280;5113;41.822;23.564;2024-03-23T07:41:24;-11407.38;;;17.08;38.35
10145;BME280;5113;41.822;23.564;2024-03-23T07:44:31;-11435.00;;;18.08;37.09
10145;BME280;5113;41.822;23.564;2024-03-23T07:47:37;-11364.81;;;15.55;39.96
10145;BME280;5113;41.822;23.564;2024-03-23T07:54:07;-11391.16;;;16.50;39.01
10145;BME280;5113;41.822;23.564;2024-03-23T07:57:12;-11368.19;;;15.67;39.94
10145;BME280;5113;41.822;23.564;2024-03-23T08:00:17;-11406.81;;;17.06;38.37
10145;BME280;5113;41.822;23.564;2024-03-23T08:03:23;-11416.25;;;17.40;38.15
10145;BME280;5113;41.822;23.564;2024-03-23T08:06:28;-11420.19;;;17.55;37.80
10145;BME280;5113;41.822;23.564;2024-03-23T08:09:34;-11438.38;;;18.20;37.07
10145;BME280;5113;41.822;23.564;2024-03-23T08:12:39;-11414.13;;;17.33;37.47
10145;BME280;5113;41.822;23.564;2024-03-23T08:15:44;-11449.53;;;18.60;36.65
10145;BME280;5113;41.822;23.564;2024-03-23T08:18:51;-11457.84;;;18.90;35.83
10145;BME280;5113;41.822;23.564;2024-03-23T08:21:57;-11443.47;;;18.38;36.88
10145;BME280;5113;41.822;23.564;2024-03-23T08:25:02;-11420.91;;;17.57;37.10
10145;BME280;5113;41.822;23.564;2024-03-23T08:28:07;-11462.06;;;19.05;35.47
10145;BME280;5113;41.822;23.564;2024-03-23T08:31:13;-11443.31;;;18.38;36.69
10145;BME280;5113;41.822;23.564;2024-03-23T08:34:18;-11422.31;;;17.62;37.74
10145;BME280;5113;41.822;23.564;2024-03-23T08:37:25;-11422.59;;;17.63;36.12
10145;BME280;5113;41.822;23.564;2024-03-23T08:40:31;-11459.97;;;18.98;35.10
10145;BME280;5113;41.822;23.564;2024-03-23T08:43:38;-11485.47;;;19.90;34.78
10145;BME280;5113;41.822;23.564;2024-03-23T08:46:44;-11486.03;;;19.92;34.94
10145;BME280;5113;41.822;23.564;2024-03-23T08:49:48;-11450.50;;;18.64;36.89
10145;BME280;5113;41.822;23.564;2024-03-23T08:52:56;-11489.72;;;20.05;33.61
10145;BME280;5113;41.822;23.564;2024-03-23T08:56:01;-11488.72;;;20.01;34.61
10145;BME280;5113;41.822;23.564;2024-03-23T08:59:06;-11452.19;;;18.70;34.88
10145;BME280;5113;41.822;23.564;2024-03-23T09:02:12;-11516.09;;;21.00;32.48
10145;BME280;5113;41.822;23.564;2024-03-23T09:05:16;-11499.59;;;20.40;33.47
10145;BME280;5113;41.822;23.564;2024-03-23T09:08:24;-11531.47;;;21.55;32.12
10145;BME280;5113;41.822;23.564;2024-03-23T09:11:28;-11526.13;;;21.36;30.79
10145;BME280;5113;41.822;23.564;2024-03-23T09:14:34;-11500.72;;;20.44;30.65
10145;BME280;5113;41.822;23.564;2024-03-23T09:17:39;-11483.78;;;19.84;30.08
10145;BME280;5113;41.822;23.564;2024-03-23T09:20:44;-11491.13;;;20.10;31.17
10145;BME280;5113;41.822;23.564;2024-03-23T09:23:50;-11519.63;;;21.13;29.57
10145;BME280;5113;41.822;23.564;2024-03-23T09:26:55;-11508.63;;;20.73;29.76
10145;BME280;5113;41.822;23.564;2024-03-23T09:29:59;-11513.97;;;20.92;27.51
10145;BME280;5113;41.822;23.564;2024-03-23T09:33:05;-11511.72;;;20.84;24.89
10145;BME280;5113;41.822;23.564;2024-03-23T09:36:09;-11503.69;;;20.55;25.37
10145;BME280;5113;41.822;23.564;2024-03-23T09:39:16;-11539.09;;;21.83;25.91
10145;BME280;5113;41.822;23.564;2024-03-23T09:42:21;-11558.56;;;22.53;25.84
10145;BME280;5113;41.822;23.564;2024-03-23T09:45:27;-11523.28;;;21.26;26.15
10145;BME280;5113;41.822;23.564;2024-03-23T09:48:33;-11516.78;;;21.02;23.49
10145;BME280;5113;41.822;23.564;2024-03-23T09:51:38;-11523.00;;;21.25;22.31
10145;BME280;5113;41.822;23.564;2024-03-23T09:54:45;-11543.47;;;21.98;20.81
10145;BME280;5113;41.822;23.564;2024-03-23T09:57:50;-11530.06;;;21.50;18.72
10145;BME280;5113;41.822;23.564;2024-03-23T10:00:55;-11551.78;;;22.28;20.77
10145;BME280;5113;41.822;23.564;2024-03-23T10:04:01;-11537.13;;;21.75;21.24
10145;BME280;5113;41.822;23.564;2024-03-23T10:07:13;-11545.44;;;22.05;24.59
10145;BME280;5113;41.822;23.564;2024-03-23T10:10:20;-11534.44;;;21.66;25.32
10145;BME280;5113;41.822;23.564;2024-03-23T10:13:27;-11571.84;;;23.00;24.58
10145;BME280;5113;41.822;23.564;2024-03-23T10:16:33;-11576.91;;;23.19;23.80
10145;BME280;5113;41.822;23.564;2024-03-23T10:19:37;-11567.59;;;22.85;23.94
10145;BME280;5113;41.822;23.564;2024-03-23T10:22:42;-11547.00;;;22.11;23.81
10145;BME280;5113;41.822;23.564;2024-03-23T10:25:48;-11539.50;;;21.84;25.42
10145;BME280;5113;41.822;23.564;2024-03-23T10:28:56;-11570.13;;;22.94;23.32
10145;BME280;5113;41.822;23.564;2024-03-23T10:32:08;-11543.31;;;21.98;23.56
10145;BME280;5113;41.822;23.564;2024-03-23T10:35:14;-11576.06;;;23.16;22.43
10145;BME280;5113;41.822;23.564;2024-03-23T10:38:20;-11611.34;;;24.43;21.46
10145;BME280;5113;41.822;23.564;2024-03-23T10:41:27;-11542.75;;;21.96;23.25
10145;BME280;5113;41.822;23.564;2024-03-23T10:44:33;-11525.41;;;21.33;23.07
10145;BME280;5113;41.822;23.564;2024-03-23T10:47:39;-11586.50;;;23.53;21.70
10145;BME280;5113;41.822;23.564;2024-03-23T10:50:44;-11635.34;;;25.29;21.68
10145;BME280;5113;41.822;23.564;2024-03-23T10:53:49;-11616.44;;;24.61;21.75
10145;BME280;5113;41.822;23.564;2024-03-23T10:57:03;-11596.81;;;23.90;20.21
10145;BME280;5113;41.822;23.564;2024-03-23T11:00:11;-11566.19;;;22.80;20.86
10145;BME280;5113;41.822;23.564;2024-03-23T11:03:30;-11672.34;;;26.62;20.35
10145;BME280;5113;41.822;23.564;2024-03-23T11:06:37;-11643.25;;;25.57;19.72
10145;BME280;5113;41.822;23.564;2024-03-23T11:09:43;-11594.97;;;23.84;20.94
10145;BME280;5113;41.822;23.564;2024-03-23T11:12:50;-11595.25;;;23.85;20.79
10145;BME280;5113;41.822;23.564;2024-03-23T11:16:13;-11631.97;;;25.17;19.84
10145;BME280;5113;41.822;23.564;2024-03-23T11:19:35;-11658.38;;;26.12;19.19
10145;BME280;5113;41.822;23.564;2024-03-23T11:22:41;-11614.59;;;24.54;20.14
10145;BME280;5113;41.822;23.564;2024-03-23T11:25:47;-11615.03;;;24.56;19.82
10145;BME280;5113;41.822;23.564;2024-03-23T11:29:08;-11629.72;;;25.09;19.37
10145;BME280;5113;41.822;23.564;2024-03-23T11:32:14;-11586.50;;;23.53;19.84
10145;BME280;5113;41.822;23.564;2024-03-23T11:35:28;-11671.94;;;26.60;19.73
10145;BME280;5113;41.822;23.564;2024-03-23T11:38:37;-11691.28;;;27.30;18.79
10145;BME280;5113;41.822;23.564;2024-03-23T11:41:50;-11671.50;;;26.59;18.43
10145;BME280;5113;41.822;23.564;2024-03-23T11:44:56;-11652.03;;;25.89;18.35
10145;BME280;5113;41.822;23.564;2024-03-23T11:48:03;-11642.56;;;25.55;17.60
10145;BME280;5113;41.822;23.564;2024-03-23T11:51:09;-11634.78;;;25.27;17.83
10145;BME280;5113;41.822;23.564;2024-03-23T11:54:15;-11650.88;;;25.85;16.76
10145;BME280;5113;41.822;23.564;2024-03-23T11:57:19;-11610.09;;;24.38;18.11
10145;BME280;5113;41.822;23.564;2024-03-23T12:00:27;-11670.94;;;26.57;17.28
10145;BME280;5113;41.822;23.564;2024-03-23T12:03:33;-11655.41;;;26.01;17.07
10145;BME280;5113;41.822;23.564;2024-03-23T12:06:39;-11643.97;;;25.60;18.59
10145;BME280;5113;41.822;23.564;2024-03-23T12:09:44;-11683.66;;;27.03;16.63
10145;BME280;5113;41.822;23.564;2024-03-23T12:13:00;-11612.19;;;24.46;18.47
10145;BME280;5113;41.822;23.564;2024-03-23T12:16:12;-11619.97;;;24.74;18.21
10145;BME280;5113;41.822;23.564;2024-03-23T12:19:18;-11620.25;;;24.75;18.01
10145;BME280;5113;41.822;23.564;2024-03-23T12:22:23;-11656.25;;;26.04;18.09
10145;BME280;5113;41.822;23.564;2024-03-23T12:25:28;-11650.19;;;25.82;19.56
10145;BME280;5113;41.822;23.564;2024-03-23T12:28:33;-11667.00;;;26.43;18.51
10145;BME280;5113;41.822;23.564;2024-03-23T12:31:40;-11639.31;;;25.43;18.81
10145;BME280;5113;41.822;23.564;2024-03-23T12:34:45;-11656.69;;;26.06;20.18
10145;BME280;5113;41.822;23.564;2024-03-23T12:37:50;-11608.53;;;24.32;20.81
10145;BME280;5113;41.822;23.564;2024-03-23T12:40:54;-11638.19;;;25.39;20.60
10145;BME280;5113;41.822;23.564;2024-03-23T12:44:00;-11595.53;;;23.86;20.99
10145;BME280;5113;41.822;23.564;2024-03-23T12:47:06;-11638.59;;;25.41;20.92
10145;BME280;5113;41.822;23.564;2024-03-23T12:50:11;-11632.53;;;25.19;20.23
10145;BME280;5113;41.822;23.564;2024-03-23T12:53:16;-11691.69;;;27.32;20.35
10145;BME280;5113;41.822;23.564;2024-03-23T12:56:21;-11638.75;;;25.41;20.54
10145;BME280;5113;41.822;23.564;2024-03-23T12:59:28;-11671.38;;;26.58;20.01
10145;BME280;5113;41.822;23.564;2024-03-23T13:02:35;-11644.09;;;25.60;20.04
10145;BME280;5113;41.822;23.564;2024-03-23T13:05:41;-11626.75;;;24.98;20.87
10145;BME280;5113;41.822;23.564;2024-03-23T13:08:46;-11600.75;;;24.04;20.66
10145;BME280;5113;41.822;23.564;2024-03-23T13:11:54;-11629.84;;;25.09;19.55
10145;BME280;5113;41.822;23.564;2024-03-23T13:14:59;-11639.59;;;25.44;19.86
10145;BME280;5113;41.822;23.564;2024-03-23T13:18:07;-11609.53;;;24.36;20.34
10145;BME280;5113;41.822;23.564;2024-03-23T13:21:11;-11654.13;;;25.96;19.25
10145;BME280;5113;41.822;23.564;2024-03-23T13:24:17;-11663.03;;;26.28;18.51
10145;BME280;5113;41.822;23.564;2024-03-23T13:27:22;-11641.84;;;25.52;18.46
10145;BME280;5113;41.822;23.564;2024-03-23T13:30:51;-11639.59;;;25.44;19.64
10145;BME280;5113;41.822;23.564;2024-03-23T13:33:58;-11572.13;;;23.01;20.67
10145;BME280;5113;41.822;23.564;2024-03-23T13:37:03;-11644.09;;;25.60;19.20
10145;BME280;5113;41.822;23.564;2024-03-23T13:40:09;-11603.03;;;24.13;20.92
10145;BME280;5113;41.822;23.564;2024-03-23T13:43:14;-11667.00;;;26.43;19.19
10145;BME280;5113;41.822;23.564;2024-03-23T13:46:19;-11675.31;;;26.73;19.42
10145;BME280;5113;41.822;23.564;2024-03-23T13:49:29;-11686.34;;;27.12;19.26
10145;BME280;5113;41.822;23.564;2024-03-23T13:52:35;-11678.44;;;26.84;19.09
10145;BME280;5113;41.822;23.564;2024-03-23T13:55:46;-11676.31;;;26.76;19.14
10145;BME280;5113;41.822;23.564;2024-03-23T13:58:52;-11596.38;;;23.89;21.13
10145;BME280;5113;41.822;23.564;2024-03-23T14:01:56;-11605.28;;;24.21;20.90
10145;BME280;5113;41.822;23.564;2024-03-23T14:05:04;-11702.87;;;27.72;19.23
10145;BME280;5113;41.822;23.564;2024-03-23T14:08:09;-11686.19;;;27.12;19.17
10145;BME280;5113;41.822;23.564;2024-03-23T14:11:14;-11662.75;;;26.27;19.83
10145;BME280;5113;41.822;23.564;2024-03-23T14:14:19;-11618.84;;;24.69;20.65
10145;BME280;5113;41.822;23.564;2024-03-23T14:17:25;-11635.78;;;25.30;20.83
10145;BME280;5113;41.822;23.564;2024-03-23T14:20:31;-11596.09;;;23.88;22.14
10145;BME280;5113;41.822;23.564;2024-03-23T14:23:37;-11679.28;;;26.87;19.71
10145;BME280;5113;41.822;23.564;2024-03-23T14:26:41;-11606.13;;;24.24;21.00
10145;BME280;5113;41.822;23.564;2024-03-23T14:29:47;-11662.75;;;26.27;19.90
10145;BME280;5113;41.822;23.564;2024-03-23T14:32:51;-11631.13;;;25.14;21.43
10145;BME280;5113;41.822;23.564;2024-03-23T14:35:58;-11609.53;;;24.36;21.88
10145;BME280;5113;41.822;23.564;2024-03-23T14:39:04;-11638.19;;;25.39;21.48
10145;BME280;5113;41.822;23.564;2024-03-23T14:42:08;-11612.34;;;24.46;21.92
10145;BME280;5113;41.822;23.564;2024-03-23T14:45:14;-11623.78;;;24.87;22.16
10145;BME280;5113;41.822;23.564;2024-03-23T14:48:19;-11582.97;;;23.41;22.84
10145;BME280;5113;41.822;23.564;2024-03-23T14:51:28;-11618.56;;;24.68;21.54
10145;BME280;5113;41.822;23.564;2024-03-23T14:54:33;-11550.38;;;22.23;23.33
10145;BME280;5113;41.822;23.564;2024-03-23T14:57:39;-11589.63;;;23.64;22.77
10145;BME280;5113;41.822;23.564;2024-03-23T15:00:45;-11561.94;;;22.65;23.34
10145;BME280;5113;41.822;23.564;2024-03-23T15:03:49;-11532.75;;;21.60;23.84
10145;BME280;5113;41.822;23.564;2024-03-23T15:06:59;-11550.94;;;22.25;23.27
10145;BME280;5113;41.822;23.564;2024-03-23T15:10:04;-11566.19;;;22.80;23.10
10145;BME280;5113;41.822;23.564;2024-03-23T15:13:12;-11558.56;;;22.53;23.29
10145;BME280;5113;41.822;23.564;2024-03-23T15:16:17;-11534.00;;;21.64;24.28
10145;BME280;5113;41.822;23.564;2024-03-23T15:19:24;-11558.56;;;22.53;23.33
10145;BME280;5113;41.822;23.564;2024-03-23T15:22:31;-11562.22;;;22.66;23.64
10145;BME280;5113;41.822;23.564;2024-03-23T15:25:36;-11526.66;;;21.38;24.16
10145;BME280;5113;41.822;23.564;2024-03-23T15:28:41;-11545.44;;;22.05;23.66
10145;BME280;5113;41.822;23.564;2024-03-23T15:32:06;-11544.16;;;22.01;24.14
10145;BME280;5113;41.822;23.564;2024-03-23T15:35:11;-11519.63;;;21.13;24.89
10145;BME280;5113;41.822;23.564;2024-03-23T15:38:19;-11559.69;;;22.57;24.06
10145;BME280;5113;41.822;23.564;2024-03-23T15:41:24;-11540.78;;;21.89;24.44
10145;BME280;5113;41.822;23.564;2024-03-23T15:44:30;-11519.91;;;21.14;24.77
10145;BME280;5113;41.822;23.564;2024-03-23T15:47:35;-11505.22;;;20.61;25.83
10145;BME280;5113;41.822;23.564;2024-03-23T15:50:40;-11504.09;;;20.57;25.40
10145;BME280;5113;41.822;23.564;2024-03-23T15:53:47;-11517.06;;;21.03;25.39
10145;BME280;5113;41.822;23.564;2024-03-23T15:56:55;-11537.53;;;21.77;25.07
10145;BME280;5113;41.822;23.564;2024-03-23T16:00:00;-11535.13;;;21.68;25.09
10145;BME280;5113;41.822;23.564;2024-03-23T16:03:06;-11550.38;;;22.23;24.66
10145;BME280;5113;41.822;23.564;2024-03-23T16:06:12;-11554.19;;;22.37;25.16
10145;BME280;5113;41.822;23.564;2024-03-23T16:09:19;-11553.75;;;22.35;25.05
10145;BME280;5113;41.822;23.564;2024-03-23T16:12:23;-11559.41;;;22.56;24.99
10145;BME280;5113;41.822;23.564;2024-03-23T16:15:29;-11534.44;;;21.66;26.31
10145;BME280;5113;41.822;23.564;2024-03-23T16:18:34;-11515.94;;;20.99;26.54
10145;BME280;5113;41.822;23.564;2024-03-23T16:21:39;-11518.63;;;21.09;26.68
10145;BME280;5113;41.822;23.564;2024-03-23T16:24:47;-11520.03;;;21.14;26.94
10145;BME280;5113;41.822;23.564;2024-03-23T16:27:52;-11495.06;;;20.24;27.61
10145;BME280;5113;41.822;23.564;2024-03-23T16:30:58;-11493.53;;;20.19;27.58
10145;BME280;5113;41.822;23.564;2024-03-23T16:34:04;-11525.41;;;21.33;26.81
10145;BME280;5113;41.822;23.564;2024-03-23T16:37:08;-11493.94;;;20.20;28.35
10145;BME280;5113;41.822;23.564;2024-03-23T16:40:16;-11464.03;;;19.12;29.43
10145;BME280;5113;41.822;23.564;2024-03-23T16:43:20;-11493.09;;;20.17;28.35
10145;BME280;5113;41.822;23.564;2024-03-23T16:46:26;-11511.16;;;20.82;27.85
10145;BME280;5113;41.822;23.564;2024-03-23T16:49:32;-11491.13;;;20.10;27.99
10145;BME280;5113;41.822;23.564;2024-03-23T16:52:36;-11464.47;;;19.14;29.56
10145;BME280;5113;41.822;23.564;2024-03-23T16:55:45;-11483.50;;;19.83;29.10
10145;BME280;5113;41.822;23.564;2024-03-23T16:58:49;-11499.59;;;20.40;27.92
10145;BME280;5113;41.822;23.564;2024-03-23T17:01:55;-11423.16;;;17.65;30.97
10145;BME280;5113;41.822;23.564;2024-03-23T17:04:59;-11472.50;;;19.43;28.80
10145;BME280;5113;41.822;23.564;2024-03-23T17:08:06;-11482.66;;;19.79;29.29
10145;BME280;5113;41.822;23.564;2024-03-23T17:11:12;-11467.16;;;19.24;29.34